Brendan Turecamo — WDB9024 — position and weather

sailwx.info

Track history (hours):
 
Tides and Currents Weather Stations Pressure Air Temp Water Temp Dewpoint Dewpoint Depression Visibility Wind Speed Wind Dir Waves Ship Positions

Brendan Turecamo

Owner: Moran Towing Corporation, New Canaan, CT. More information available from US FCC via Universal Licensing System and Coast Guard Vessel Documentation Center.

Last reported at 2017-Sep-25 00:30 UTC. Time now 2017-Sep-25 00:38 UTC.
Position N 40°41' W 074°08'.

Length 33 m; draft 4.7 m.

Type: Tug. MMSI: 366946760.

Date/timePositionNaut miles runAvg speedWind from/ knotsBaromVisibWave heightAir tempDewpointWater temp
2017-Sep-25 00:30N 40°41' W 074°08'1 2.1
2017-Sep-25 00:00N 40°42' W 074°09'0 0.2
2017-Sep-24 23:30N 40°42' W 074°09'3 6.6
2017-Sep-24 22:59N 40°39' W 074°07'0 0.0
2017-Sep-24 22:17N 40°39' W 074°07'0 0.0
2017-Sep-24 21:59N 40°39' W 074°07'1 1.6
2017-Sep-24 21:29N 40°39' W 074°06'2 4.3
2017-Sep-24 21:00N 40°38' W 074°04'0 0.9
2017-Sep-24 20:30N 40°38' W 074°04'0 0.0
2017-Sep-24 20:00N 40°38' W 074°04'0 0.0
2017-Sep-24 19:30N 40°38' W 074°04'2 3.0
2017-Sep-24 18:59N 40°39' W 074°05'3 5.2
2017-Sep-24 18:30N 40°40' W 074°09'1 2.3
2017-Sep-24 18:00N 40°41' W 074°09'1 1.3
2017-Sep-24 17:30N 40°40' W 074°08'0 0.0
2017-Sep-24 17:00N 40°40' W 074°08'0 0.0
2017-Sep-24 16:30N 40°40' W 074°08'2 3.0
2017-Sep-24 16:00N 40°42' W 074°07'1 1.3
2017-Sep-24 15:30N 40°42' W 074°07'0 0.9
2017-Sep-24 15:00N 40°43' W 074°07'0 0.1
2017-Sep-24 14:30N 40°43' W 074°07'0 0.4
2017-Sep-24 14:00N 40°43' W 074°07'4 8.2
2017-Sep-24 13:30N 40°38' W 074°08'0 0.1
2017-Sep-24 13:00N 40°38' W 074°08'0 0.0
2017-Sep-24 12:30N 40°38' W 074°08'0 0.0
2017-Sep-24 12:00N 40°38' W 074°08'0 0.0
2017-Sep-24 11:30N 40°38' W 074°08'0 0.0
2017-Sep-24 11:00N 40°38' W 074°08'0 0.0
2017-Sep-24 10:30N 40°38' W 074°08'0 0.0
2017-Sep-24 10:00N 40°38' W 074°08'2 3.5
2017-Sep-24 09:30N 40°39' W 074°06'2 4.2
2017-Sep-24 09:00N 40°39' W 074°08'1 2.7
2017-Sep-24 08:30N 40°40' W 074°09'0 0.3
2017-Sep-24 08:00N 40°40' W 074°09'0 0.9
2017-Sep-24 07:30N 40°39' W 074°09'1 0.5
2017-Sep-24 05:00N 40°38' W 074°08'0 0.0
2017-Sep-24 04:30N 40°38' W 074°08'0 0.0
2017-Sep-24 04:00N 40°38' W 074°08'0 0.0
2017-Sep-24 01:04N 40°38' W 074°08'0 0.2
2017-Sep-24 00:57N 40°38' W 074°08'0 0.0
2017-Sep-24 00:29N 40°38' W 074°08'0 0.0
2017-Sep-24 00:00N 40°38' W 074°08'0 0.0
2017-Sep-23 23:30N 40°38' W 074°08'0 0.0
2017-Sep-23 22:35N 40°38' W 074°08'0 0.0
2017-Sep-23 22:26N 40°38' W 074°08'2 3.6
2017-Sep-23 22:00N 40°39' W 074°06'0 0.7
2017-Sep-23 21:30N 40°39' W 074°05'0 0.5
2017-Sep-23 21:00N 40°39' W 074°05'2 4.3
2017-Sep-23 20:30N 40°38' W 074°03'3 5.5
2017-Sep-23 20:00N 40°39' W 074°06'1 0.0
2017-Sep-22 01:58N 40°38' W 074°08'0 0.0
2017-Sep-22 01:30N 40°38' W 074°08'0 0.0
2017-Sep-22 00:59N 40°38' W 074°08'0 0.0
2017-Sep-22 00:30N 40°38' W 074°08'0 0.0
2017-Sep-22 00:00N 40°38' W 074°08'0 0.0
2017-Sep-21 23:30N 40°38' W 074°08'0 0.0
2017-Sep-21 23:00N 40°38' W 074°08'0 0.8
2017-Sep-21 22:30N 40°39' W 074°08'2 3.8
2017-Sep-21 22:00N 40°40' W 074°08'1 1.9
2017-Sep-21 21:30N 40°41' W 074°09'1 1.6
2017-Sep-21 21:00N 40°41' W 074°08'2 4.0
2017-Sep-21 20:29N 40°38' W 074°08'0 0.0
2017-Sep-21 17:01N 40°38' W 074°08'0 0.0
2017-Sep-21 17:00N 40°38' W 074°08'0 0.0
2017-Sep-21 16:30N 40°38' W 074°08'0 0.0
2017-Sep-21 16:00N 40°38' W 074°08'0 0.0
2017-Sep-21 15:30N 40°38' W 074°08'0 0.0
2017-Sep-21 14:52N 40°38' W 074°08'0 0.0
2017-Sep-21 14:28N 40°38' W 074°08'0 0.0
2017-Sep-21 13:14N 40°38' W 074°08'0 0.0
2017-Sep-21 12:58N 40°38' W 074°08'0 0.0
2017-Sep-21 11:22N 40°38' W 074°08'0 0.0
2017-Sep-21 10:36N 40°38' W 074°08'0 0.1
2017-Sep-21 10:29N 40°38' W 074°08'0 0.0
2017-Sep-21 09:43N 40°38' W 074°08'0 0.0
2017-Sep-21 09:27N 40°38' W 074°08'0 0.0
2017-Sep-21 08:59N 40°38' W 074°08'0 0.0
2017-Sep-21 08:30N 40°38' W 074°08'0 0.0
2017-Sep-21 07:59N 40°38' W 074°08'0 0.0
2017-Sep-21 07:03N 40°38' W 074°08'0 0.0
2017-Sep-21 06:35N 40°38' W 074°08'0 0.0
2017-Sep-21 06:09N 40°38' W 074°08'0 0.0
2017-Sep-21 05:44N 40°38' W 074°08'0 0.0
2017-Sep-21 04:52N 40°38' W 074°08'3 8.0
2017-Sep-21 04:30N 40°39' W 074°04'2 3.1
2017-Sep-21 04:00N 40°39' W 074°06'1 0.5
2017-Sep-21 01:28N 40°38' W 074°08'1 2.3
2017-Sep-21 01:00N 40°39' W 074°06'0 0.5
2017-Sep-21 00:30N 40°39' W 074°07'0 0.7
2017-Sep-21 00:00N 40°39' W 074°07'1 0.2
2017-Sep-20 20:23N 40°38' W 074°08'0 0.0
2017-Sep-20 19:57N 40°38' W 074°08'0 0.0
2017-Sep-20 19:28N 40°38' W 074°08'0 0.0
2017-Sep-20 19:00N 40°38' W 074°08'0 0.0
2017-Sep-20 18:29N 40°38' W 074°08'0 0.0
2017-Sep-20 17:58N 40°38' W 074°08'0 0.0
2017-Sep-20 17:27N 40°38' W 074°08'0 0.0
2017-Sep-20 15:50N 40°38' W 074°08'1 4.6
2017-Sep-20 15:30N 40°39' W 074°10'2 4.5
2017-Sep-20 15:00N 40°38' W 074°12'4 4.2
2017-Sep-20 14:00N 40°39' W 074°07'1 0.4
2017-Sep-20 12:08N 40°38' W 074°08'0 0.0
2017-Sep-20 11:42N 40°38' W 074°08'0 0.0
2017-Sep-20 11:26N 40°38' W 074°08'0 0.0
2017-Sep-20 10:12N 40°38' W 074°08'0 0.3
2017-Sep-20 10:00N 40°38' W 074°08'2 3.0
2017-Sep-20 09:30N 40°40' W 074°08'0 0.3
2017-Sep-20 09:00N 40°40' W 074°09'0 0.8
2017-Sep-20 08:30N 40°40' W 074°09'1 2.0
2017-Sep-20 07:53N 40°38' W 074°08'0 0.0
2017-Sep-20 07:30N 40°38' W 074°08'0 0.0
2017-Sep-20 07:00N 40°38' W 074°08'0 0.0
2017-Sep-20 06:30N 40°38' W 074°08'0 0.0
2017-Sep-20 06:00N 40°38' W 074°08'0 0.0
2017-Sep-20 05:30N 40°38' W 074°08'0 0.0
2017-Sep-20 05:00N 40°38' W 074°08'3 5.0
2017-Sep-20 04:30N 40°41' W 074°09'0 0.3
2017-Sep-20 04:00N 40°41' W 074°09'2 3.5
2017-Sep-20 03:30N 40°39' W 074°09'2 4.0
2017-Sep-20 03:00N 40°39' W 074°06'2 3.2
2017-Sep-20 02:30N 40°39' W 074°04'4 7.0
2017-Sep-20 02:00N 40°40' W 074°09'2 3.0
2017-Sep-20 01:30N 40°41' W 074°09'0 0.1
2017-Sep-20 01:00N 40°41' W 074°09'2 3.7
2017-Sep-20 00:30N 40°39' W 074°09'3 4.6
2017-Sep-19 23:56N 40°39' W 074°06'3 6.2
2017-Sep-19 23:30N 40°37' W 074°03'2 4.5
2017-Sep-19 23:00N 40°39' W 074°02'2 4.9
2017-Sep-19 22:30N 40°41' W 074°00'2 3.9
2017-Sep-19 22:00N 40°40' W 074°02'3 6.8
2017-Sep-19 21:30N 40°39' W 074°06'2 3.6
2017-Sep-19 21:00N 40°40' W 074°09'2 4.5
2017-Sep-19 20:30N 40°42' W 074°09'0 0.1
2017-Sep-19 20:00N 40°42' W 074°09'2 3.3
2017-Sep-19 19:30N 40°40' W 074°08'2 3.7
2017-Sep-19 19:00N 40°38' W 074°08'0 0.0
2017-Sep-19 18:29N 40°38' W 074°08'0 0.0
2017-Sep-19 17:57N 40°38' W 074°08'0 0.0
2017-Sep-19 17:28N 40°38' W 074°08'0 0.0
2017-Sep-19 17:00N 40°38' W 074°08'0 0.0
2017-Sep-19 16:30N 40°38' W 074°08'0 0.0
2017-Sep-19 15:59N 40°38' W 074°08'0 0.0
2017-Sep-19 15:30N 40°38' W 074°08'0 0.0
2017-Sep-19 15:00N 40°38' W 074°08'0 0.0
2017-Sep-19 14:29N 40°38' W 074°08'0 0.0
2017-Sep-19 14:00N 40°38' W 074°08'0 0.0
2017-Sep-19 13:28N 40°38' W 074°08'0 0.0
2017-Sep-19 12:48N 40°38' W 074°08'1 3.6
2017-Sep-19 12:31N 40°39' W 074°06'3 5.3
2017-Sep-19 12:01N 40°39' W 074°03'1 1.9
2017-Sep-19 11:30N 40°38' W 074°03'4 7.2
2017-Sep-19 11:00N 40°38' W 074°08'0 0.0
2017-Sep-19 10:29N 40°38' W 074°08'0 0.0
2017-Sep-19 09:59N 40°38' W 074°08'0 0.0
2017-Sep-19 09:29N 40°38' W 074°08'0 0.0
2017-Sep-19 09:00N 40°38' W 074°08'0 0.0
2017-Sep-19 08:29N 40°38' W 074°08'0 0.0
2017-Sep-19 07:59N 40°38' W 074°08'0 0.0
2017-Sep-19 07:30N 40°38' W 074°08'0 0.0
2017-Sep-19 07:00N 40°38' W 074°08'0 0.0
2017-Sep-19 06:30N 40°38' W 074°08'0 0.0
2017-Sep-19 06:00N 40°38' W 074°08'0 0.0
2017-Sep-19 05:29N 40°38' W 074°08'0 0.0
2017-Sep-19 05:00N 40°38' W 074°08'0 0.0
2017-Sep-19 04:30N 40°38' W 074°08'0 0.0
2017-Sep-19 04:00N 40°38' W 074°08'1 1.6
2017-Sep-19 03:29N 40°39' W 074°07'510.6
2017-Sep-19 03:00N 40°42' W 074°02'611.7
2017-Sep-19 02:30N 40°48' W 073°59'510.8
2017-Sep-19 02:00N 40°53' W 073°56'3 1.5
2017-Sep-18 23:44N 40°56' W 073°54'311.2
2017-Sep-18 23:30N 40°53' W 073°56'713.7
2017-Sep-18 23:00N 40°47' W 073°60'510.7
2017-Sep-18 22:30N 40°42' W 074°02'1 2.2
2017-Sep-18 22:00N 40°41' W 074°01'2 4.9
2017-Sep-18 21:30N 40°40' W 074°03'4 2.1
2017-Sep-18 19:30N 40°39' W 074°09'1 2.4
2017-Sep-18 19:00N 40°38' W 074°08'1 1.8
2017-Sep-18 18:30N 40°39' W 074°07'1 2.2
2017-Sep-18 18:00N 40°39' W 074°05'0 0.0
2017-Sep-18 17:30N 40°39' W 074°05'0 0.5
2017-Sep-18 17:00N 40°39' W 074°05'2 3.1
2017-Sep-18 16:30N 40°38' W 074°03'3 6.6
2017-Sep-18 16:00N 40°38' W 074°08'0 0.0
2017-Sep-18 15:30N 40°38' W 074°08'0 0.0
2017-Sep-18 15:00N 40°38' W 074°08'0 0.0
2017-Sep-18 14:30N 40°38' W 074°08'0 0.0
2017-Sep-18 14:00N 40°38' W 074°08'0 0.0
2017-Sep-18 13:30N 40°38' W 074°08'0 0.0
2017-Sep-18 13:00N 40°38' W 074°08'0 0.0
2017-Sep-18 12:30N 40°38' W 074°08'0 0.1
2017-Sep-18 12:00N 40°38' W 074°08'0 0.1
2017-Sep-18 11:30N 40°38' W 074°08'4 8.2
2017-Sep-18 10:59N 40°36' W 074°12'0 0.4
2017-Sep-18 09:59N 40°36' W 074°12'2 1.7
2017-Sep-18 09:02N 40°38' W 074°12'0 1.4
2017-Sep-18 08:58N 40°38' W 074°12'1 2.0
2017-Sep-18 08:30N 40°39' W 074°11'3 0.4
2017-Sep-18 01:46N 40°38' W 074°08'310.3
2017-Sep-18 01:30N 40°39' W 074°11'1 0.3
2017-Sep-17 22:23N 40°38' W 074°12'2 5.7
2017-Sep-17 21:59N 40°39' W 074°09'3 6.7
2017-Sep-17 21:30N 40°39' W 074°05'2 3.4
2017-Sep-17 21:00N 40°39' W 074°03'4 7.5
2017-Sep-17 20:30N 40°39' W 074°08'0 0.0
2017-Sep-17 12:01N 40°39' W 074°08'0 9.3
2017-Sep-17 12:00N 40°39' W 074°08'4 1.3
2017-Sep-17 08:56N 40°36' W 074°12'2 4.4
2017-Sep-17 08:30N 40°38' W 074°12'4 7.1
2017-Sep-17 08:00N 40°39' W 074°07'0 0.8
2017-Sep-17 07:30N 40°39' W 074°08'4 7.3
2017-Sep-17 07:00N 40°37' W 074°12'1 0.9
2017-Sep-17 05:28N 40°36' W 074°12'0 0.0
2017-Sep-17 05:00N 40°36' W 074°12'0 0.0
2017-Sep-17 04:29N 40°36' W 074°12'0 0.0
2017-Sep-17 03:21N 40°36' W 074°12'0 0.0
2017-Sep-17 02:58N 40°36' W 074°12'1 0.2
2017-Sep-16 23:57N 40°36' W 074°12'0 0.3
2017-Sep-16 23:23N 40°36' W 074°12'0 0.0
2017-Sep-16 23:00N 40°36' W 074°12'0 0.0
2017-Sep-16 22:30N 40°36' W 074°12'1 2.5
2017-Sep-16 21:58N 40°38' W 074°12'3 5.3
2017-Sep-16 21:26N 40°39' W 074°09'3 7.8
2017-Sep-16 21:00N 40°39' W 074°04'3 4.9
2017-Sep-16 20:26N 40°38' W 074°08'0 0.0
2017-Sep-16 19:56N 40°38' W 074°08'0 0.0
2017-Sep-16 19:25N 40°38' W 074°08'0 0.0
2017-Sep-16 18:58N 40°38' W 074°08'0 0.0
2017-Sep-16 18:24N 40°38' W 074°08'0 0.0
2017-Sep-16 18:00N 40°38' W 074°08'0 0.0
2017-Sep-16 17:30N 40°38' W 074°08'0 0.0
2017-Sep-16 16:51N 40°38' W 074°08'0 0.0
2017-Sep-16 16:16N 40°38' W 074°08'0 0.0
2017-Sep-16 16:00N 40°38' W 074°08'0 0.0
2017-Sep-16 15:29N 40°38' W 074°08'0 0.0
2017-Sep-16 15:00N 40°38' W 074°08'0 0.0
2017-Sep-16 14:23N 40°38' W 074°08'0 0.0
2017-Sep-16 14:00N 40°38' W 074°08'0 0.0
2017-Sep-16 13:29N 40°38' W 074°08'0 0.0
2017-Sep-16 11:36N 40°38' W 074°08'0 0.0
2017-Sep-16 10:53N 40°38' W 074°08'0 0.0
2017-Sep-16 10:30N 40°38' W 074°08'0 0.0
2017-Sep-16 09:59N 40°38' W 074°08'0 0.0
2017-Sep-16 09:13N 40°38' W 074°08'0 0.0
2017-Sep-16 08:50N 40°38' W 074°08'0 0.0
2017-Sep-16 08:25N 40°38' W 074°08'0 0.0
2017-Sep-16 07:52N 40°38' W 074°08'0 0.0
2017-Sep-16 07:29N 40°38' W 074°08'0 0.0
2017-Sep-16 06:56N 40°38' W 074°08'0 0.0
2017-Sep-16 06:29N 40°38' W 074°08'0 0.0
2017-Sep-16 05:59N 40°38' W 074°08'0 0.0
2017-Sep-16 05:30N 40°38' W 074°08'0 0.0
2017-Sep-16 05:00N 40°38' W 074°08'0 0.0
2017-Sep-16 03:46N 40°38' W 074°08'0 0.0
2017-Sep-16 03:28N 40°38' W 074°08'0 0.0
2017-Sep-16 02:58N 40°38' W 074°08'0 0.0
2017-Sep-16 02:29N 40°38' W 074°08'0 0.0
2017-Sep-16 01:59N 40°38' W 074°08'0 0.0
2017-Sep-16 01:28N 40°38' W 074°08'0 0.0
2017-Sep-16 01:00N 40°38' W 074°08'1 1.1
2017-Sep-16 00:30N 40°39' W 074°08'3 6.5
2017-Sep-16 00:00N 40°42' W 074°09'1 2.8
2017-Sep-15 23:30N 40°41' W 074°08'2 4.1
2017-Sep-15 23:00N 40°39' W 074°07'3 6.8
2017-Sep-15 22:30N 40°40' W 074°03'2 4.8
2017-Sep-15 22:00N 40°41' W 074°00'4 7.5
2017-Sep-15 21:30N 40°38' W 074°03'3 6.3
2017-Sep-15 21:00N 40°35' W 074°01'0 0.0
2017-Sep-15 20:30N 40°35' W 074°01'0 0.0
2017-Sep-15 20:00N 40°35' W 074°01'0 0.1
2017-Sep-15 19:30N 40°35' W 074°01'0 0.1
2017-Sep-15 18:59N 40°35' W 074°01'0 0.1
2017-Sep-15 18:29N 40°35' W 074°01'0 0.0
2017-Sep-15 18:00N 40°35' W 074°01'0 0.0
2017-Sep-15 17:30N 40°35' W 074°01'0 0.1
2017-Sep-15 17:00N 40°35' W 074°01'0 0.1
2017-Sep-15 16:30N 40°35' W 074°01'0 0.2
2017-Sep-15 16:00N 40°35' W 074°01'0 0.0
2017-Sep-15 15:28N 40°35' W 074°01'0 0.1
2017-Sep-15 15:00N 40°35' W 074°01'0 0.0
2017-Sep-15 14:30N 40°35' W 074°01'0 0.0
2017-Sep-15 14:00N 40°35' W 074°01'0 0.0
2017-Sep-15 13:30N 40°35' W 074°01'0 0.0
2017-Sep-15 13:00N 40°35' W 074°01'0 0.0
2017-Sep-15 12:30N 40°35' W 074°01'0 0.0
2017-Sep-15 12:00N 40°35' W 074°01'0 0.0
2017-Sep-15 11:30N 40°35' W 074°01'0 0.0
2017-Sep-15 11:00N 40°35' W 074°01'0 0.0
2017-Sep-15 10:30N 40°35' W 074°01'0 0.0
2017-Sep-15 10:00N 40°35' W 074°01'0 0.1
2017-Sep-15 09:30N 40°35' W 074°01'0 0.2
2017-Sep-15 08:58N 40°35' W 074°01'0 0.1
2017-Sep-15 08:30N 40°35' W 074°01'0 0.0
2017-Sep-15 08:00N 40°35' W 074°01'0 0.0
2017-Sep-15 07:30N 40°35' W 074°01'0 0.0
2017-Sep-15 07:00N 40°35' W 074°01'0 0.1
2017-Sep-15 06:30N 40°35' W 074°01'0 0.0
2017-Sep-15 06:00N 40°35' W 074°01'0 0.1
2017-Sep-15 05:30N 40°35' W 074°01'0 0.1
2017-Sep-15 05:00N 40°35' W 074°01'0 0.0
2017-Sep-15 04:30N 40°35' W 074°01'0 0.2
2017-Sep-15 04:00N 40°35' W 074°01'0 0.0
2017-Sep-15 03:30N 40°35' W 074°01'0 0.0
2017-Sep-15 03:00N 40°35' W 074°01'0 0.0
2017-Sep-15 02:30N 40°35' W 074°01'0 0.0
2017-Sep-15 02:00N 40°35' W 074°01'0 0.0
2017-Sep-15 01:30N 40°35' W 074°01'0 0.0
2017-Sep-15 01:00N 40°35' W 074°01'  
Track history (hours):
 
Tides and Currents Weather Stations Pressure Air Temp Water Temp Dewpoint Dewpoint Depression Visibility Wind Speed Wind Dir Waves Ship Positions

Brendan Turecamo

Owner: Moran Towing Corporation, New Canaan, CT. More information available from US FCC via Universal Licensing System and Coast Guard Vessel Documentation Center.

Last reported at 2017-Sep-25 00:30 UTC. Time now 2017-Sep-25 00:38 UTC.
Position N 40°41' W 074°08'.

Length 33 m; draft 4.7 m.

Type: Tug. MMSI: 366946760.

Date/timePositionNaut miles runAvg speedWind from/ knotsBaromVisibWave heightAir tempDewpointWater temp
2017-Sep-25 00:30N 40°41' W 074°08'1 2.1
2017-Sep-25 00:00N 40°42' W 074°09'0 0.2
2017-Sep-24 23:30N 40°42' W 074°09'3 6.6
2017-Sep-24 22:59N 40°39' W 074°07'0 0.0
2017-Sep-24 22:17N 40°39' W 074°07'0 0.0
2017-Sep-24 21:59N 40°39' W 074°07'1 1.6
2017-Sep-24 21:29N 40°39' W 074°06'2 4.3
2017-Sep-24 21:00N 40°38' W 074°04'0 0.9
2017-Sep-24 20:30N 40°38' W 074°04'0 0.0
2017-Sep-24 20:00N 40°38' W 074°04'0 0.0
2017-Sep-24 19:30N 40°38' W 074°04'2 3.0
2017-Sep-24 18:59N 40°39' W 074°05'3 5.2
2017-Sep-24 18:30N 40°40' W 074°09'1 2.3
2017-Sep-24 18:00N 40°41' W 074°09'1 1.3
2017-Sep-24 17:30N 40°40' W 074°08'0 0.0
2017-Sep-24 17:00N 40°40' W 074°08'0 0.0
2017-Sep-24 16:30N 40°40' W 074°08'2 3.0
2017-Sep-24 16:00N 40°42' W 074°07'1 1.3
2017-Sep-24 15:30N 40°42' W 074°07'0 0.9
2017-Sep-24 15:00N 40°43' W 074°07'0 0.1
2017-Sep-24 14:30N 40°43' W 074°07'0 0.4
2017-Sep-24 14:00N 40°43' W 074°07'4 8.2
2017-Sep-24 13:30N 40°38' W 074°08'0 0.1
2017-Sep-24 13:00N 40°38' W 074°08'0 0.0
2017-Sep-24 12:30N 40°38' W 074°08'0 0.0
2017-Sep-24 12:00N 40°38' W 074°08'0 0.0
2017-Sep-24 11:30N 40°38' W 074°08'0 0.0
2017-Sep-24 11:00N 40°38' W 074°08'0 0.0
2017-Sep-24 10:30N 40°38' W 074°08'0 0.0
2017-Sep-24 10:00N 40°38' W 074°08'2 3.5
2017-Sep-24 09:30N 40°39' W 074°06'2 4.2
2017-Sep-24 09:00N 40°39' W 074°08'1 2.7
2017-Sep-24 08:30N 40°40' W 074°09'0 0.3
2017-Sep-24 08:00N 40°40' W 074°09'0 0.9
2017-Sep-24 07:30N 40°39' W 074°09'1 0.5
2017-Sep-24 05:00N 40°38' W 074°08'0 0.0
2017-Sep-24 04:30N 40°38' W 074°08'0 0.0
2017-Sep-24 04:00N 40°38' W 074°08'0 0.0
2017-Sep-24 01:04N 40°38' W 074°08'0 0.2
2017-Sep-24 00:57N 40°38' W 074°08'0 0.0
2017-Sep-24 00:29N 40°38' W 074°08'0 0.0
2017-Sep-24 00:00N 40°38' W 074°08'0 0.0
2017-Sep-23 23:30N 40°38' W 074°08'0 0.0
2017-Sep-23 22:35N 40°38' W 074°08'0 0.0
2017-Sep-23 22:26N 40°38' W 074°08'2 3.6
2017-Sep-23 22:00N 40°39' W 074°06'0 0.7
2017-Sep-23 21:30N 40°39' W 074°05'0 0.5
2017-Sep-23 21:00N 40°39' W 074°05'2 4.3
2017-Sep-23 20:30N 40°38' W 074°03'3 5.5
2017-Sep-23 20:00N 40°39' W 074°06'1 0.0
2017-Sep-22 01:58N 40°38' W 074°08'0 0.0
2017-Sep-22 01:30N 40°38' W 074°08'0 0.0
2017-Sep-22 00:59N 40°38' W 074°08'0 0.0
2017-Sep-22 00:30N 40°38' W 074°08'0 0.0
2017-Sep-22 00:00N 40°38' W 074°08'0 0.0
2017-Sep-21 23:30N 40°38' W 074°08'0 0.0
2017-Sep-21 23:00N 40°38' W 074°08'0 0.8
2017-Sep-21 22:30N 40°39' W 074°08'2 3.8
2017-Sep-21 22:00N 40°40' W 074°08'1 1.9
2017-Sep-21 21:30N 40°41' W 074°09'1 1.6
2017-Sep-21 21:00N 40°41' W 074°08'2 4.0
2017-Sep-21 20:29N 40°38' W 074°08'0 0.0
2017-Sep-21 17:01N 40°38' W 074°08'0 0.0
2017-Sep-21 17:00N 40°38' W 074°08'0 0.0
2017-Sep-21 16:30N 40°38' W 074°08'0 0.0
2017-Sep-21 16:00N 40°38' W 074°08'0 0.0
2017-Sep-21 15:30N 40°38' W 074°08'0 0.0
2017-Sep-21 14:52N 40°38' W 074°08'0 0.0
2017-Sep-21 14:28N 40°38' W 074°08'0 0.0
2017-Sep-21 13:14N 40°38' W 074°08'0 0.0
2017-Sep-21 12:58N 40°38' W 074°08'0 0.0
2017-Sep-21 11:22N 40°38' W 074°08'0 0.0
2017-Sep-21 10:36N 40°38' W 074°08'0 0.1
2017-Sep-21 10:29N 40°38' W 074°08'0 0.0
2017-Sep-21 09:43N 40°38' W 074°08'0 0.0
2017-Sep-21 09:27N 40°38' W 074°08'0 0.0
2017-Sep-21 08:59N 40°38' W 074°08'0 0.0
2017-Sep-21 08:30N 40°38' W 074°08'0 0.0
2017-Sep-21 07:59N 40°38' W 074°08'0 0.0
2017-Sep-21 07:03N 40°38' W 074°08'0 0.0
2017-Sep-21 06:35N 40°38' W 074°08'0 0.0
2017-Sep-21 06:09N 40°38' W 074°08'0 0.0
2017-Sep-21 05:44N 40°38' W 074°08'0 0.0
2017-Sep-21 04:52N 40°38' W 074°08'3 8.0
2017-Sep-21 04:30N 40°39' W 074°04'2 3.1
2017-Sep-21 04:00N 40°39' W 074°06'1 0.5
2017-Sep-21 01:28N 40°38' W 074°08'1 2.3
2017-Sep-21 01:00N 40°39' W 074°06'0 0.5
2017-Sep-21 00:30N 40°39' W 074°07'0 0.7
2017-Sep-21 00:00N 40°39' W 074°07'1 0.2
2017-Sep-20 20:23N 40°38' W 074°08'0 0.0
2017-Sep-20 19:57N 40°38' W 074°08'0 0.0
2017-Sep-20 19:28N 40°38' W 074°08'0 0.0
2017-Sep-20 19:00N 40°38' W 074°08'0 0.0
2017-Sep-20 18:29N 40°38' W 074°08'0 0.0
2017-Sep-20 17:58N 40°38' W 074°08'0 0.0
2017-Sep-20 17:27N 40°38' W 074°08'0 0.0
2017-Sep-20 15:50N 40°38' W 074°08'1 4.6
2017-Sep-20 15:30N 40°39' W 074°10'2 4.5
2017-Sep-20 15:00N 40°38' W 074°12'4 4.2
2017-Sep-20 14:00N 40°39' W 074°07'1 0.4
2017-Sep-20 12:08N 40°38' W 074°08'0 0.0
2017-Sep-20 11:42N 40°38' W 074°08'0 0.0
2017-Sep-20 11:26N 40°38' W 074°08'0 0.0
2017-Sep-20 10:12N 40°38' W 074°08'0 0.3
2017-Sep-20 10:00N 40°38' W 074°08'2 3.0
2017-Sep-20 09:30N 40°40' W 074°08'0 0.3
2017-Sep-20 09:00N 40°40' W 074°09'0 0.8
2017-Sep-20 08:30N 40°40' W 074°09'1 2.0
2017-Sep-20 07:53N 40°38' W 074°08'0 0.0
2017-Sep-20 07:30N 40°38' W 074°08'0 0.0
2017-Sep-20 07:00N 40°38' W 074°08'0 0.0
2017-Sep-20 06:30N 40°38' W 074°08'0 0.0
2017-Sep-20 06:00N 40°38' W 074°08'0 0.0
2017-Sep-20 05:30N 40°38' W 074°08'0 0.0
2017-Sep-20 05:00N 40°38' W 074°08'3 5.0
2017-Sep-20 04:30N 40°41' W 074°09'0 0.3
2017-Sep-20 04:00N 40°41' W 074°09'2 3.5
2017-Sep-20 03:30N 40°39' W 074°09'2 4.0
2017-Sep-20 03:00N 40°39' W 074°06'2 3.2
2017-Sep-20 02:30N 40°39' W 074°04'4 7.0
2017-Sep-20 02:00N 40°40' W 074°09'2 3.0
2017-Sep-20 01:30N 40°41' W 074°09'0 0.1
2017-Sep-20 01:00N 40°41' W 074°09'2 3.7
2017-Sep-20 00:30N 40°39' W 074°09'3 4.6
2017-Sep-19 23:56N 40°39' W 074°06'3 6.2
2017-Sep-19 23:30N 40°37' W 074°03'2 4.5
2017-Sep-19 23:00N 40°39' W 074°02'2 4.9
2017-Sep-19 22:30N 40°41' W 074°00'2 3.9
2017-Sep-19 22:00N 40°40' W 074°02'3 6.8
2017-Sep-19 21:30N 40°39' W 074°06'2 3.6
2017-Sep-19 21:00N 40°40' W 074°09'2 4.5
2017-Sep-19 20:30N 40°42' W 074°09'0 0.1
2017-Sep-19 20:00N 40°42' W 074°09'2 3.3
2017-Sep-19 19:30N 40°40' W 074°08'2 3.7
2017-Sep-19 19:00N 40°38' W 074°08'0 0.0
2017-Sep-19 18:29N 40°38' W 074°08'0 0.0
2017-Sep-19 17:57N 40°38' W 074°08'0 0.0
2017-Sep-19 17:28N 40°38' W 074°08'0 0.0
2017-Sep-19 17:00N 40°38' W 074°08'0 0.0
2017-Sep-19 16:30N 40°38' W 074°08'0 0.0
2017-Sep-19 15:59N 40°38' W 074°08'0 0.0
2017-Sep-19 15:30N 40°38' W 074°08'0 0.0
2017-Sep-19 15:00N 40°38' W 074°08'0 0.0
2017-Sep-19 14:29N 40°38' W 074°08'0 0.0
2017-Sep-19 14:00N 40°38' W 074°08'0 0.0
2017-Sep-19 13:28N 40°38' W 074°08'0 0.0
2017-Sep-19 12:48N 40°38' W 074°08'1 3.6
2017-Sep-19 12:31N 40°39' W 074°06'3 5.3
2017-Sep-19 12:01N 40°39' W 074°03'1 1.9
2017-Sep-19 11:30N 40°38' W 074°03'4 7.2
2017-Sep-19 11:00N 40°38' W 074°08'0 0.0
2017-Sep-19 10:29N 40°38' W 074°08'0 0.0
2017-Sep-19 09:59N 40°38' W 074°08'0 0.0
2017-Sep-19 09:29N 40°38' W 074°08'0 0.0
2017-Sep-19 09:00N 40°38' W 074°08'0 0.0
2017-Sep-19 08:29N 40°38' W 074°08'0 0.0
2017-Sep-19 07:59N 40°38' W 074°08'0 0.0
2017-Sep-19 07:30N 40°38' W 074°08'0 0.0
2017-Sep-19 07:00N 40°38' W 074°08'0 0.0
2017-Sep-19 06:30N 40°38' W 074°08'0 0.0
2017-Sep-19 06:00N 40°38' W 074°08'0 0.0
2017-Sep-19 05:29N 40°38' W 074°08'0 0.0
2017-Sep-19 05:00N 40°38' W 074°08'0 0.0
2017-Sep-19 04:30N 40°38' W 074°08'0 0.0
2017-Sep-19 04:00N 40°38' W 074°08'1 1.6
2017-Sep-19 03:29N 40°39' W 074°07'510.6
2017-Sep-19 03:00N 40°42' W 074°02'611.7
2017-Sep-19 02:30N 40°48' W 073°59'510.8
2017-Sep-19 02:00N 40°53' W 073°56'3 1.5
2017-Sep-18 23:44N 40°56' W 073°54'311.2
2017-Sep-18 23:30N 40°53' W 073°56'713.7
2017-Sep-18 23:00N 40°47' W 073°60'510.7
2017-Sep-18 22:30N 40°42' W 074°02'1 2.2
2017-Sep-18 22:00N 40°41' W 074°01'2 4.9
2017-Sep-18 21:30N 40°40' W 074°03'4 2.1
2017-Sep-18 19:30N 40°39' W 074°09'1 2.4
2017-Sep-18 19:00N 40°38' W 074°08'1 1.8
2017-Sep-18 18:30N 40°39' W 074°07'1 2.2
2017-Sep-18 18:00N 40°39' W 074°05'0 0.0
2017-Sep-18 17:30N 40°39' W 074°05'0 0.5
2017-Sep-18 17:00N 40°39' W 074°05'2 3.1
2017-Sep-18 16:30N 40°38' W 074°03'3 6.6
2017-Sep-18 16:00N 40°38' W 074°08'0 0.0
2017-Sep-18 15:30N 40°38' W 074°08'0 0.0
2017-Sep-18 15:00N 40°38' W 074°08'0 0.0
2017-Sep-18 14:30N 40°38' W 074°08'0 0.0
2017-Sep-18 14:00N 40°38' W 074°08'0 0.0
2017-Sep-18 13:30N 40°38' W 074°08'0 0.0
2017-Sep-18 13:00N 40°38' W 074°08'0 0.0
2017-Sep-18 12:30N 40°38' W 074°08'0 0.1
2017-Sep-18 12:00N 40°38' W 074°08'0 0.1
2017-Sep-18 11:30N 40°38' W 074°08'4 8.2
2017-Sep-18 10:59N 40°36' W 074°12'0 0.4
2017-Sep-18 09:59N 40°36' W 074°12'2 1.7
2017-Sep-18 09:02N 40°38' W 074°12'0 1.4
2017-Sep-18 08:58N 40°38' W 074°12'1 2.0
2017-Sep-18 08:30N 40°39' W 074°11'3 0.4
2017-Sep-18 01:46N 40°38' W 074°08'310.3
2017-Sep-18 01:30N 40°39' W 074°11'1 0.3
2017-Sep-17 22:23N 40°38' W 074°12'2 5.7
2017-Sep-17 21:59N 40°39' W 074°09'3 6.7
2017-Sep-17 21:30N 40°39' W 074°05'2 3.4
2017-Sep-17 21:00N 40°39' W 074°03'4 7.5
2017-Sep-17 20:30N 40°39' W 074°08'0 0.0
2017-Sep-17 12:01N 40°39' W 074°08'0 9.3
2017-Sep-17 12:00N 40°39' W 074°08'4 1.3
2017-Sep-17 08:56N 40°36' W 074°12'2 4.4
2017-Sep-17 08:30N 40°38' W 074°12'4 7.1
2017-Sep-17 08:00N 40°39' W 074°07'0 0.8
2017-Sep-17 07:30N 40°39' W 074°08'4 7.3
2017-Sep-17 07:00N 40°37' W 074°12'1 0.9
2017-Sep-17 05:28N 40°36' W 074°12'0 0.0
2017-Sep-17 05:00N 40°36' W 074°12'0 0.0
2017-Sep-17 04:29N 40°36' W 074°12'0 0.0
2017-Sep-17 03:21N 40°36' W 074°12'0 0.0
2017-Sep-17 02:58N 40°36' W 074°12'1 0.2
2017-Sep-16 23:57N 40°36' W 074°12'0 0.3
2017-Sep-16 23:23N 40°36' W 074°12'0 0.0
2017-Sep-16 23:00N 40°36' W 074°12'0 0.0
2017-Sep-16 22:30N 40°36' W 074°12'1 2.5
2017-Sep-16 21:58N 40°38' W 074°12'3 5.3
2017-Sep-16 21:26N 40°39' W 074°09'3 7.8
2017-Sep-16 21:00N 40°39' W 074°04'3 4.9
2017-Sep-16 20:26N 40°38' W 074°08'0 0.0
2017-Sep-16 19:56N 40°38' W 074°08'0 0.0
2017-Sep-16 19:25N 40°38' W 074°08'0 0.0
2017-Sep-16 18:58N 40°38' W 074°08'0 0.0
2017-Sep-16 18:24N 40°38' W 074°08'0 0.0
2017-Sep-16 18:00N 40°38' W 074°08'0 0.0
2017-Sep-16 17:30N 40°38' W 074°08'0 0.0
2017-Sep-16 16:51N 40°38' W 074°08'0 0.0
2017-Sep-16 16:16N 40°38' W 074°08'0 0.0
2017-Sep-16 16:00N 40°38' W 074°08'0 0.0
2017-Sep-16 15:29N 40°38' W 074°08'0 0.0
2017-Sep-16 15:00N 40°38' W 074°08'0 0.0
2017-Sep-16 14:23N 40°38' W 074°08'0 0.0
2017-Sep-16 14:00N 40°38' W 074°08'0 0.0
2017-Sep-16 13:29N 40°38' W 074°08'0 0.0
2017-Sep-16 11:36N 40°38' W 074°08'0 0.0
2017-Sep-16 10:53N 40°38' W 074°08'0 0.0
2017-Sep-16 10:30N 40°38' W 074°08'0 0.0
2017-Sep-16 09:59N 40°38' W 074°08'0 0.0
2017-Sep-16 09:13N 40°38' W 074°08'0 0.0
2017-Sep-16 08:50N 40°38' W 074°08'0 0.0
2017-Sep-16 08:25N 40°38' W 074°08'0 0.0
2017-Sep-16 07:52N 40°38' W 074°08'0 0.0
2017-Sep-16 07:29N 40°38' W 074°08'0 0.0
2017-Sep-16 06:56N 40°38' W 074°08'0 0.0
2017-Sep-16 06:29N 40°38' W 074°08'0 0.0
2017-Sep-16 05:59N 40°38' W 074°08'0 0.0
2017-Sep-16 05:30N 40°38' W 074°08'0 0.0
2017-Sep-16 05:00N 40°38' W 074°08'0 0.0
2017-Sep-16 03:46N 40°38' W 074°08'0 0.0
2017-Sep-16 03:28N 40°38' W 074°08'0 0.0
2017-Sep-16 02:58N 40°38' W 074°08'0 0.0
2017-Sep-16 02:29N 40°38' W 074°08'0 0.0
2017-Sep-16 01:59N 40°38' W 074°08'0 0.0
2017-Sep-16 01:28N 40°38' W 074°08'0 0.0
2017-Sep-16 01:00N 40°38' W 074°08'1 1.1
2017-Sep-16 00:30N 40°39' W 074°08'3 6.5
2017-Sep-16 00:00N 40°42' W 074°09'1 2.8
2017-Sep-15 23:30N 40°41' W 074°08'2 4.1
2017-Sep-15 23:00N 40°39' W 074°07'3 6.8
2017-Sep-15 22:30N 40°40' W 074°03'2 4.8
2017-Sep-15 22:00N 40°41' W 074°00'4 7.5
2017-Sep-15 21:30N 40°38' W 074°03'3 6.3
2017-Sep-15 21:00N 40°35' W 074°01'0 0.0
2017-Sep-15 20:30N 40°35' W 074°01'0 0.0
2017-Sep-15 20:00N 40°35' W 074°01'0 0.1
2017-Sep-15 19:30N 40°35' W 074°01'0 0.1
2017-Sep-15 18:59N 40°35' W 074°01'0 0.1
2017-Sep-15 18:29N 40°35' W 074°01'0 0.0
2017-Sep-15 18:00N 40°35' W 074°01'0 0.0
2017-Sep-15 17:30N 40°35' W 074°01'0 0.1
2017-Sep-15 17:00N 40°35' W 074°01'0 0.1
2017-Sep-15 16:30N 40°35' W 074°01'0 0.2
2017-Sep-15 16:00N 40°35' W 074°01'0 0.0
2017-Sep-15 15:28N 40°35' W 074°01'0 0.1
2017-Sep-15 15:00N 40°35' W 074°01'0 0.0
2017-Sep-15 14:30N 40°35' W 074°01'0 0.0
2017-Sep-15 14:00N 40°35' W 074°01'0 0.0
2017-Sep-15 13:30N 40°35' W 074°01'0 0.0
2017-Sep-15 13:00N 40°35' W 074°01'0 0.0
2017-Sep-15 12:30N 40°35' W 074°01'0 0.0
2017-Sep-15 12:00N 40°35' W 074°01'0 0.0
2017-Sep-15 11:30N 40°35' W 074°01'0 0.0
2017-Sep-15 11:00N 40°35' W 074°01'0 0.0
2017-Sep-15 10:30N 40°35' W 074°01'0 0.0
2017-Sep-15 10:00N 40°35' W 074°01'0 0.1
2017-Sep-15 09:30N 40°35' W 074°01'0 0.2
2017-Sep-15 08:58N 40°35' W 074°01'0 0.1
2017-Sep-15 08:30N 40°35' W 074°01'0 0.0
2017-Sep-15 08:00N 40°35' W 074°01'0 0.0
2017-Sep-15 07:30N 40°35' W 074°01'0 0.0
2017-Sep-15 07:00N 40°35' W 074°01'0 0.1
2017-Sep-15 06:30N 40°35' W 074°01'0 0.0
2017-Sep-15 06:00N 40°35' W 074°01'0 0.1
2017-Sep-15 05:30N 40°35' W 074°01'0 0.1
2017-Sep-15 05:00N 40°35' W 074°01'0 0.0
2017-Sep-15 04:30N 40°35' W 074°01'0 0.2
2017-Sep-15 04:00N 40°35' W 074°01'0 0.0
2017-Sep-15 03:30N 40°35' W 074°01'0 0.0
2017-Sep-15 03:00N 40°35' W 074°01'0 0.0
2017-Sep-15 02:30N 40°35' W 074°01'0 0.0
2017-Sep-15 02:00N 40°35' W 074°01'0 0.0
2017-Sep-15 01:30N 40°35' W 074°01'0 0.0
2017-Sep-15 01:00N 40°35' W 074°01'  

Dump ship's entire track history